logo
Search for airport 
image banner adimage banner adimage banner ad
image banner ad

LKBP - Brno - Cerna Pole

Located in Brno, Czech Republic

ICAO - , IATA -

Data provided by Airmate  

General information

Coordinates: N49°12'12" E16°36'60"
Elevation is 791 feet MSL.
 
View others Airports in South Moravian Region

Operational data

Special qualification required
Current time UTC:
Current local time:
Weather at : LKTB - Brno/Turany ( 8 km )
METAR: LKTB 171730Z 01007KT CAVOK 08/M00 Q1006 NOSIG
TAF: TAF LKTB 171100Z 1712/1812 31008KT 9999 BKN040 TEMPO 1712/1719 36012KT 7000 -SHRA BKN025TCU TEMPO 1809/1812 7000 -SHRA BKN020TCU
View NOTAMs / SUP AIP / TFR affecting this airport [VIEW]
Communications frequencies: [VIEW]

Runways:

Airport contact information

Address: Brno Czech Republic

Satellite view of LKBP